Search for airport 
image banner adimage banner adimage banner ad
image banner ad

9CL8 - Dcor Platform Eva

Located in Huntington Beach, United States

ICAO - 9CL8, IATA -

Data provided by Airmate  

General information

Coordinates: N33°39'42" W118°3'43"
Elevation is 79 feet MSL.
Magnetic variation is 14° East
View others Airports in California

Operational data

Special qualification required
Current time UTC:
Current local time:
Weather at : KSLI - Los Alamitos Aaf ( 14 km )
METAR: KSLI 191058Z AUTO 09003KT 10SM CLR 10/09 A2999 RMK AO2 SLP159 T01020093 $
TAF: TAF KSLI 190503Z 1905/2011 VRB06KT 9999 SKC QNH2996INS TX19/1923Z TN11/1915Z
View NOTAMs / SUP AIP / TFR affecting this airport [VIEW]
Communications frequencies: [VIEW]

Runways:

Airport contact information

Address: Huntington Beach United States

Satellite view of 9CL8